Time;durP1;ratioP1;P1;durP2;ratioP2;P2;SDS_P1;SDS_P2;PMS_P1;PMS_P2;Temp;Humidity;BMP_temperature;BMP_pressure;BME280_temperature;BME280_humidity;BME280_pressure;Samples;Min_cycle;Max_cycle;Signal;HPM_P1;HPM_P2
2021/12/22 00:02:07;;;;;;;13.70;7.70;;;;;;;;;;5079916;28;20202;-83
2021/12/22 00:04:43;;;;;;;16.23;8.63;;;;;;;;;;5079944;28;20245;-83
2021/12/22 00:07:10;;;;;;;9.77;7.83;;;;;;;;;;5070983;28;20277;-83
2021/12/22 00:09:37;;;;;;;14.87;8.23;;;;;;;;;;5077761;28;20255;-84
2021/12/22 00:12:04;;;;;;;15.70;9.07;;;;;;;;;;5072885;28;20216;-83
2021/12/22 00:14:31;;;;;;;11.37;8.03;;;;;;;;;;5070369;28;20292;-83
2021/12/22 00:16:58;;;;;;;16.27;7.87;;;;;;;;;;5053541;28;20186;-83
2021/12/22 00:19:26;;;;;;;12.73;7.77;;;;;;;;;;5052773;28;20226;-83
2021/12/22 00:21:54;;;;;;;12.53;7.40;;;;;;;;;;5052722;28;20198;-83
2021/12/22 00:24:21;;;;;;;15.10;8.20;;;;;;;;;;5052073;28;20236;-83
2021/12/22 00:26:48;;;;;;;12.10;8.33;;;;;;;;;;5063310;28;20204;-83
2021/12/22 00:29:17;;;;;;;14.67;8.30;;;;;;;;;;5072063;28;20237;-83
2021/12/22 00:31:56;;;;;;;14.20;8.90;;;;;;;;;;5063847;28;20257;-83
2021/12/22 00:34:26;;;;;;;15.80;8.33;;;;;;;;;;5052028;28;20606;-83
2021/12/22 00:36:54;;;;;;;13.17;8.03;;;;;;;;;;5053099;28;20241;-83
2021/12/22 00:39:21;;;;;;;18.47;8.20;;;;;;;;;;5039006;28;20621;-83
2021/12/22 00:41:49;;;;;;;17.53;9.10;;;;;;;;;;5072279;28;20669;-83
2021/12/22 00:44:16;;;;;;;11.27;8.63;;;;;;;;;;5071898;28;20229;-83
2021/12/22 00:46:43;;;;;;;11.50;8.43;;;;;;;;;;5072390;28;20670;-83
2021/12/22 00:49:10;;;;;;;20.40;9.57;;;;;;;;;;5071948;28;20228;-83
2021/12/22 00:51:37;;;;;;;11.03;8.30;;;;;;;;;;5064205;28;20209;-83
2021/12/22 00:54:06;;;;;;;15.43;7.93;;;;;;;;;;5064023;28;20712;-83
2021/12/22 00:56:36;;;;;;;10.87;7.17;;;;;;;;;;5072429;28;20233;-83
2021/12/22 00:59:03;;;;;;;10.53;7.83;;;;;;;;;;5072010;28;20232;-83
2021/12/22 01:01:30;;;;;;;12.23;8.53;;;;;;;;;;5063360;28;20850;-83
2021/12/22 01:03:57;;;;;;;9.37;7.57;;;;;;;;;;5052096;28;20237;-83
2021/12/22 01:06:25;;;;;;;11.67;7.20;;;;;;;;;;5052665;28;20222;-83
2021/12/22 01:08:52;;;;;;;10.43;7.27;;;;;;;;;;5071886;28;20232;-84
2021/12/22 01:11:20;;;;;;;9.37;7.43;;;;;;;;;;5070358;28;20267;-83
2021/12/22 01:13:48;;;;;;;10.30;7.67;;;;;;;;;;5073783;28;20240;-84
2021/12/22 01:16:15;;;;;;;13.00;8.00;;;;;;;;;;5080331;28;20224;-83
2021/12/22 01:18:42;;;;;;;15.53;8.30;;;;;;;;;;5075867;28;20229;-83
2021/12/22 01:21:15;;;;;;;12.30;7.83;;;;;;;;;;5072601;28;20206;-83
2021/12/22 01:24:01;;;;;;;12.83;7.67;;;;;;;;;;5072138;28;20298;-84
2021/12/22 01:26:31;;;;;;;10.17;6.97;;;;;;;;;;5085617;23;20236;-82
2021/12/22 01:28:59;;;;;;;11.00;7.40;;;;;;;;;;5047385;28;20222;-84
2021/12/22 01:31:26;;;;;;;12.93;8.60;;;;;;;;;;5056101;28;20681;-82
2021/12/22 01:33:53;;;;;;;10.23;7.57;;;;;;;;;;5057440;28;20234;-83
2021/12/22 01:36:20;;;;;;;10.97;7.73;;;;;;;;;;5057072;28;20218;-82
2021/12/22 01:38:48;;;;;;;14.57;7.60;;;;;;;;;;5056882;28;20237;-82
2021/12/22 01:41:15;;;;;;;11.57;7.47;;;;;;;;;;5054922;28;20550;-84
2021/12/22 01:43:43;;;;;;;13.17;7.30;;;;;;;;;;5048465;28;20605;-83
2021/12/22 01:49:08;;;;;;;15.17;7.70;;;;;;;;;;5039725;28;20338;-83
2021/12/22 01:49:11;;;;;;;11.17;8.13;;;;;;;;;;5038264;28;20223;-82
2021/12/22 01:51:46;;;;;;;9.00;6.73;;;;;;;;;;5037975;28;20241;-84
2021/12/22 01:54:14;;;;;;;13.87;7.13;;;;;;;;;;5037323;28;20318;-83
2021/12/22 01:56:43;;;;;;;15.70;7.03;;;;;;;;;;5037400;28;20230;-83
2021/12/22 01:59:12;;;;;;;13.07;8.10;;;;;;;;;;5057683;28;20234;-83
2021/12/22 02:01:39;;;;;;;8.73;6.77;;;;;;;;;;5054068;28;20202;-83
2021/12/22 02:04:10;;;;;;;9.13;6.87;;;;;;;;;;5064536;28;20298;-83
2021/12/22 02:06:37;;;;;;;7.83;6.93;;;;;;;;;;5059507;28;20230;-83
2021/12/22 02:09:05;;;;;;;14.57;6.93;;;;;;;;;;5060877;28;20288;-82
2021/12/22 02:11:32;;;;;;;11.50;7.20;;;;;;;;;;5042164;28;20227;-82
2021/12/22 02:14:02;;;;;;;9.00;6.53;;;;;;;;;;5042979;28;20230;-83
2021/12/22 02:16:37;;;;;;;11.53;7.83;;;;;;;;;;5041340;28;20231;-83
2021/12/22 02:19:06;;;;;;;10.30;7.53;;;;;;;;;;5041511;28;20309;-82
2021/12/22 02:21:40;;;;;;;14.10;8.40;;;;;;;;;;5042743;28;20206;-82
2021/12/22 02:24:07;;;;;;;15.57;7.90;;;;;;;;;;5041067;28;20234;-83
2021/12/22 02:26:38;;;;;;;9.47;6.73;;;;;;;;;;5056944;28;20230;-82
2021/12/22 02:29:06;;;;;;;10.53;7.73;;;;;;;;;;5043409;28;20252;-83
2021/12/22 02:31:40;;;;;;;17.97;7.83;;;;;;;;;;5073999;28;20221;-82
2021/12/22 02:34:14;;;;;;;11.33;7.67;;;;;;;;;;5061266;28;20237;-82
2021/12/22 02:36:42;;;;;;;8.70;6.37;;;;;;;;;;5050606;28;20282;-82
2021/12/22 02:39:09;;;;;;;10.13;6.93;;;;;;;;;;5054295;28;20318;-82
2021/12/22 02:41:38;;;;;;;9.50;6.50;;;;;;;;;;5059716;28;20735;-81
2021/12/22 02:44:08;;;;;;;10.40;6.50;;;;;;;;;;5053953;28;20230;-82
2021/12/22 02:46:36;;;;;;;16.43;7.10;;;;;;;;;;5058145;28;20304;-83
2021/12/22 02:49:04;;;;;;;9.73;6.87;;;;;;;;;;5061498;28;20233;-82
2021/12/22 02:51:32;;;;;;;8.93;6.40;;;;;;;;;;5061674;28;20222;-82
2021/12/22 02:54:06;;;;;;;8.50;7.07;;;;;;;;;;5056208;28;20716;-81
2021/12/22 02:56:38;;;;;;;11.63;7.57;;;;;;;;;;5061129;28;20222;-82
2021/12/22 02:59:17;;;;;;;7.43;6.63;;;;;;;;;;5050390;28;20257;-82
2021/12/22 03:04:33;;;;;;;17.87;6.93;;;;;;;;;;5040339;28;20284;-83
2021/12/22 03:07:05;;;;;;;13.03;6.60;;;;;;;;;;5053768;28;20289;-82
2021/12/22 03:09:34;;;;;;;7.60;6.17;;;;;;;;;;5060386;28;20697;-83
2021/12/22 03:12:07;;;;;;;8.23;6.53;;;;;;;;;;5060083;28;20226;-81
2021/12/22 03:14:34;;;;;;;11.27;6.90;;;;;;;;;;5060552;28;20237;-83
2021/12/22 03:17:01;;;;;;;11.40;6.90;;;;;;;;;;5041127;28;20194;-83
2021/12/22 03:19:29;;;;;;;9.47;6.70;;;;;;;;;;5059492;28;20241;-83
2021/12/22 03:22:01;;;;;;;9.50;6.70;;;;;;;;;;5050880;28;20206;-82
2021/12/22 03:24:29;;;;;;;15.33;8.47;;;;;;;;;;5057090;28;20241;-83
2021/12/22 03:27:00;;;;;;;9.30;7.07;;;;;;;;;;5060344;28;20237;-83
2021/12/22 03:29:27;;;;;;;11.00;6.60;;;;;;;;;;5058504;28;20234;-82
2021/12/22 03:31:54;;;;;;;7.20;6.40;;;;;;;;;;5046507;28;20230;-83
2021/12/22 03:34:21;;;;;;;14.40;8.03;;;;;;;;;;5047424;28;20226;-81
2021/12/22 03:36:48;;;;;;;12.23;7.23;;;;;;;;;;5059609;28;20237;-83
2021/12/22 03:39:16;;;;;;;10.47;6.60;;;;;;;;;;5049724;28;20233;-82
2021/12/22 03:41:44;;;;;;;11.73;7.43;;;;;;;;;;5042941;28;20211;-82
2021/12/22 03:44:12;;;;;;;11.20;7.67;;;;;;;;;;5059428;28;20240;-82
2021/12/22 03:46:40;;;;;;;10.80;7.27;;;;;;;;;;5049470;28;20229;-82
2021/12/22 03:49:08;;;;;;;12.20;7.47;;;;;;;;;;5045345;28;20233;-82
2021/12/22 03:51:36;;;;;;;10.13;6.83;;;;;;;;;;5048869;28;20318;-83
2021/12/22 03:54:03;;;;;;;8.23;6.63;;;;;;;;;;5050753;28;20233;-84
2021/12/22 03:56:30;;;;;;;11.43;6.97;;;;;;;;;;5042893;28;20607;-83
2021/12/22 03:58:57;;;;;;;12.63;7.43;;;;;;;;;;5049551;28;20714;-82
2021/12/22 04:01:25;;;;;;;11.10;7.53;;;;;;;;;;5055392;28;20199;-82
2021/12/22 04:03:57;;;;;;;10.80;7.77;;;;;;;;;;5050224;28;20230;-83
2021/12/22 04:06:24;;;;;;;14.13;6.83;;;;;;;;;;5058604;28;20234;-83
2021/12/22 04:08:51;;;;;;;13.30;7.20;;;;;;;;;;5057108;28;20605;-83
2021/12/22 04:11:18;;;;;;;9.30;6.83;;;;;;;;;;5044483;28;20765;-83
2021/12/22 04:13:45;;;;;;;7.97;6.07;;;;;;;;;;5038822;28;20242;-82
2021/12/22 04:16:12;;;;;;;13.73;6.67;;;;;;;;;;5039024;28;20214;-83
2021/12/22 04:18:40;;;;;;;9.37;7.20;;;;;;;;;;5038435;28;20288;-83
2021/12/22 04:21:07;;;;;;;8.17;6.60;;;;;;;;;;5037457;28;20195;-83
2021/12/22 04:23:35;;;;;;;12.17;7.07;;;;;;;;;;5050021;28;20226;-83
2021/12/22 04:26:02;;;;;;;11.17;6.43;;;;;;;;;;5048560;28;20235;-83
2021/12/22 04:28:29;;;;;;;8.63;7.50;;;;;;;;;;5051866;28;20700;-82
2021/12/22 04:30:56;;;;;;;11.73;7.30;;;;;;;;;;5056254;28;20250;-82
2021/12/22 04:33:24;;;;;;;16.97;7.60;;;;;;;;;;5056592;28;20305;-83
2021/12/22 04:35:53;;;;;;;9.53;7.10;;;;;;;;;;5056502;28;20226;-82
2021/12/22 04:38:20;;;;;;;9.17;5.80;;;;;;;;;;5057187;28;20301;-83
2021/12/22 04:40:48;;;;;;;9.87;7.27;;;;;;;;;;5057275;28;20251;-82
2021/12/22 04:43:15;;;;;;;15.07;8.33;;;;;;;;;;5055748;28;20217;-82
2021/12/22 04:45:42;;;;;;;16.80;9.47;;;;;;;;;;5057027;28;20233;-82
2021/12/22 04:48:10;;;;;;;19.10;10.57;;;;;;;;;;5056270;28;20221;-82
2021/12/22 04:50:37;;;;;;;21.53;10.17;;;;;;;;;;5055599;28;20226;-82
2021/12/22 04:53:10;;;;;;;15.77;8.53;;;;;;;;;;5056328;28;20221;-82
2021/12/22 04:55:37;;;;;;;15.37;7.80;;;;;;;;;;5052134;28;20733;-82
2021/12/22 04:58:04;;;;;;;11.60;7.50;;;;;;;;;;5051583;28;20202;-82
2021/12/22 05:00:34;;;;;;;12.93;9.40;;;;;;;;;;5057568;28;20240;-82
2021/12/22 05:03:01;;;;;;;13.90;7.50;;;;;;;;;;5071342;28;20208;-82
2021/12/22 05:05:29;;;;;;;19.03;8.63;;;;;;;;;;5070874;28;20240;-83
2021/12/22 05:07:56;;;;;;;12.07;8.40;;;;;;;;;;5071904;28;20718;-83
2021/12/22 05:10:25;;;;;;;14.97;8.27;;;;;;;;;;5071491;28;20233;-82
2021/12/22 05:12:52;;;;;;;16.63;7.63;;;;;;;;;;5071962;28;20225;-83
2021/12/22 05:15:21;;;;;;;11.40;8.10;;;;;;;;;;5071453;28;20248;-83
2021/12/22 05:18:14;;;;;;;13.00;8.37;;;;;;;;;;5073038;28;20201;-83
2021/12/22 05:20:41;;;;;;;15.97;7.97;;;;;;;;;;5072827;28;20229;-83
2021/12/22 05:23:08;;;;;;;10.67;7.47;;;;;;;;;;5072607;28;20609;-83
2021/12/22 05:25:36;;;;;;;10.97;8.10;;;;;;;;;;5072279;28;20228;-83
2021/12/22 05:28:03;;;;;;;14.17;8.53;;;;;;;;;;5073065;28;20258;-83
2021/12/22 05:30:31;;;;;;;9.33;7.67;;;;;;;;;;5073726;28;20244;-83
2021/12/22 05:32:58;;;;;;;12.40;7.27;;;;;;;;;;5072585;28;20229;-83
2021/12/22 05:35:25;;;;;;;8.47;7.13;;;;;;;;;;5072838;28;20241;-83
2021/12/22 05:37:52;;;;;;;16.40;7.37;;;;;;;;;;5073482;28;20205;-83
2021/12/22 05:40:19;;;;;;;9.63;6.37;;;;;;;;;;5075269;28;20241;-83
2021/12/22 05:42:47;;;;;;;10.10;6.93;;;;;;;;;;5076696;28;20209;-83
2021/12/22 05:45:14;;;;;;;14.17;7.90;;;;;;;;;;5075811;28;20293;-83
2021/12/22 05:47:41;;;;;;;13.53;8.03;;;;;;;;;;5077512;28;20282;-83
2021/12/22 05:50:09;;;;;;;14.47;8.10;;;;;;;;;;5076463;28;20817;-83
2021/12/22 05:52:36;;;;;;;8.83;6.90;;;;;;;;;;5077568;28;20760;-83
2021/12/22 05:55:03;;;;;;;10.77;8.63;;;;;;;;;;5076169;28;20236;-82
2021/12/22 05:57:30;;;;;;;11.27;7.67;;;;;;;;;;5077701;28;20831;-83
2021/12/22 05:59:59;;;;;;;13.50;7.43;;;;;;;;;;5075908;28;20267;-83
2021/12/22 06:02:26;;;;;;;15.10;8.20;;;;;;;;;;5058281;28;20211;-83
2021/12/22 06:04:53;;;;;;;10.53;6.77;;;;;;;;;;5058877;28;20616;-83
2021/12/22 06:07:20;;;;;;;8.33;7.17;;;;;;;;;;5058433;28;20206;-83
2021/12/22 06:09:47;;;;;;;8.00;6.70;;;;;;;;;;5058258;28;20280;-84
2021/12/22 06:12:14;;;;;;;18.17;7.97;;;;;;;;;;5060293;28;20225;-85
2021/12/22 06:14:42;;;;;;;12.23;8.13;;;;;;;;;;5060325;28;20245;-84
2021/12/22 06:17:10;;;;;;;11.90;7.33;;;;;;;;;;5060275;28;20210;-85
2021/12/22 06:19:37;;;;;;;12.67;8.00;;;;;;;;;;5044638;28;20237;-85
2021/12/22 06:22:04;;;;;;;12.10;7.37;;;;;;;;;;5039349;28;20203;-85
2021/12/22 06:24:32;;;;;;;10.63;7.93;;;;;;;;;;5039407;28;20241;-85
2021/12/22 06:26:59;;;;;;;11.23;8.07;;;;;;;;;;5036927;28;20240;-86
2021/12/22 06:29:26;;;;;;;16.00;7.60;;;;;;;;;;5039985;28;20243;-84
2021/12/22 06:31:54;;;;;;;10.67;8.00;;;;;;;;;;5046884;28;20222;-85
2021/12/22 06:34:22;;;;;;;19.03;11.33;;;;;;;;;;5034603;28;20226;-85
2021/12/22 06:36:49;;;;;;;21.53;12.47;;;;;;;;;;5036214;28;20230;-85
2021/12/22 06:39:18;;;;;;;13.17;8.93;;;;;;;;;;5034913;28;20606;-85
2021/12/22 06:41:45;;;;;;;11.77;7.73;;;;;;;;;;5036261;28;20552;-85
2021/12/22 06:44:12;;;;;;;10.60;7.83;;;;;;;;;;5036178;28;20617;-85
2021/12/22 06:46:41;;;;;;;15.47;9.53;;;;;;;;;;5039501;28;20242;-82
2021/12/22 06:49:08;;;;;;;14.60;8.77;;;;;;;;;;5039936;28;20234;-82
2021/12/22 06:51:36;;;;;;;11.47;8.33;;;;;;;;;;5040178;28;20255;-82
2021/12/22 06:54:04;;;;;;;11.97;8.23;;;;;;;;;;5038340;28;20637;-82
2021/12/22 06:56:31;;;;;;;10.97;7.93;;;;;;;;;;5036852;28;20741;-82
2021/12/22 06:58:59;;;;;;;19.27;9.17;;;;;;;;;;5039012;28;20228;-83
2021/12/22 07:01:26;;;;;;;10.07;7.77;;;;;;;;;;5053326;28;20232;-82
2021/12/22 07:03:53;;;;;;;12.53;8.50;;;;;;;;;;5053733;28;20230;-83
2021/12/22 07:06:20;;;;;;;12.40;8.13;;;;;;;;;;5041919;28;20223;-83
2021/12/22 07:08:49;;;;;;;12.67;9.03;;;;;;;;;;5049419;28;20236;-83
2021/12/22 07:11:16;;;;;;;16.70;8.77;;;;;;;;;;5047248;28;20187;-82
2021/12/22 07:13:43;;;;;;;9.53;8.00;;;;;;;;;;5045108;28;20233;-82
2021/12/22 07:16:10;;;;;;;13.77;9.20;;;;;;;;;;5051550;28;20271;-83
2021/12/22 07:18:37;;;;;;;13.80;8.33;;;;;;;;;;5053417;28;20232;-82
2021/12/22 07:21:04;;;;;;;9.77;7.93;;;;;;;;;;5051163;28;20201;-84
2021/12/22 07:23:32;;;;;;;13.83;8.73;;;;;;;;;;5049265;28;20237;-82
2021/12/22 07:26:00;;;;;;;13.27;8.90;;;;;;;;;;5054621;28;20234;-80
2021/12/22 07:28:28;;;;;;;14.37;7.63;;;;;;;;;;5058089;28;20291;-81
2021/12/22 07:30:55;;;;;;;13.17;8.07;;;;;;;;;;5051094;28;20198;-82
2021/12/22 07:33:22;;;;;;;14.23;9.43;;;;;;;;;;5050105;28;20226;-82
2021/12/22 07:35:52;;;;;;;18.53;8.87;;;;;;;;;;5050741;28;20313;-87
2021/12/22 07:38:23;;;;;;;12.17;8.43;;;;;;;;;;5047370;28;20201;-87
2021/12/22 07:40:50;;;;;;;16.30;9.20;;;;;;;;;;5047878;28;20213;-87
2021/12/22 07:43:19;;;;;;;15.77;10.83;;;;;;;;;;5045412;28;20202;-86
2021/12/22 07:45:46;;;;;;;12.23;8.33;;;;;;;;;;5041822;28;20233;-86
2021/12/22 07:48:14;;;;;;;20.00;11.43;;;;;;;;;;5053961;28;20198;-86
2021/12/22 07:50:41;;;;;;;11.07;8.67;;;;;;;;;;5049124;28;20213;-86
2021/12/22 07:53:08;;;;;;;12.77;8.40;;;;;;;;;;5044416;28;20224;-86
2021/12/22 07:55:35;;;;;;;13.90;8.30;;;;;;;;;;5042764;28;20239;-86
2021/12/22 07:58:02;;;;;;;19.77;9.93;;;;;;;;;;5047047;28;20202;-86
2021/12/22 08:00:30;;;;;;;15.63;9.40;;;;;;;;;;5053591;28;20249;-86
2021/12/22 08:02:57;;;;;;;17.13;9.00;;;;;;;;;;5044142;28;20201;-86
2021/12/22 08:05:25;;;;;;;15.27;8.97;;;;;;;;;;5045256;28;20241;-85
2021/12/22 08:07:52;;;;;;;15.87;9.13;;;;;;;;;;5054488;28;20612;-87
2021/12/22 08:10:19;;;;;;;13.67;9.03;;;;;;;;;;5049405;28;20300;-86
2021/12/22 08:12:46;;;;;;;25.07;9.60;;;;;;;;;;5054302;28;20222;-84
2021/12/22 08:15:15;;;;;;;17.30;9.63;;;;;;;;;;5061866;28;20264;-85
2021/12/22 08:17:43;;;;;;;18.30;9.23;;;;;;;;;;5043346;28;20203;-86
2021/12/22 08:20:11;;;;;;;14.70;9.43;;;;;;;;;;5059954;28;20256;-86
2021/12/22 08:22:39;;;;;;;14.77;8.77;;;;;;;;;;5061816;28;20556;-86
2021/12/22 08:25:07;;;;;;;16.07;9.43;;;;;;;;;;5049705;28;20232;-87
2021/12/22 08:27:34;;;;;;;16.13;10.60;;;;;;;;;;5039551;28;20192;-87
2021/12/22 08:30:01;;;;;;;19.97;10.87;;;;;;;;;;5040271;28;20246;-85
2021/12/22 08:32:28;;;;;;;22.10;11.57;;;;;;;;;;5060153;28;20225;-86
2021/12/22 08:34:57;;;;;;;20.40;12.80;;;;;;;;;;5060455;28;20252;-86
2021/12/22 08:40:17;;;;;;;18.70;10.83;;;;;;;;;;5042311;28;20723;-85
2021/12/22 08:42:44;;;;;;;18.30;12.80;;;;;;;;;;5045576;28;20210;-85
2021/12/22 08:45:12;;;;;;;18.93;12.33;;;;;;;;;;5042330;28;20242;-84
2021/12/22 08:47:39;;;;;;;19.23;13.17;;;;;;;;;;5051382;28;20678;-85
2021/12/22 08:50:08;;;;;;;21.00;12.47;;;;;;;;;;5058288;28;20233;-83
2021/12/22 08:52:35;;;;;;;21.03;11.33;;;;;;;;;;5059482;28;20697;-84
2021/12/22 08:55:03;;;;;;;19.57;10.83;;;;;;;;;;5059162;28;20237;-84
2021/12/22 08:57:30;;;;;;;20.03;12.53;;;;;;;;;;5053589;28;20202;-84
2021/12/22 08:59:57;;;;;;;15.27;11.77;;;;;;;;;;5051182;28;20225;-84
2021/12/22 09:02:24;;;;;;;18.43;12.33;;;;;;;;;;5046779;28;20610;-83
2021/12/22 09:04:51;;;;;;;15.40;12.10;;;;;;;;;;5049271;28;20639;-83
2021/12/22 09:07:19;;;;;;;18.53;12.30;;;;;;;;;;5046244;28;20203;-83
2021/12/22 09:09:46;;;;;;;22.30;12.50;;;;;;;;;;5046874;28;20287;-83
2021/12/22 09:12:14;;;;;;;20.73;12.47;;;;;;;;;;5052920;28;20272;-83
2021/12/22 09:14:41;;;;;;;21.43;13.67;;;;;;;;;;5046601;28;20260;-84
2021/12/22 09:17:09;;;;;;;17.70;13.77;;;;;;;;;;5059490;28;20190;-83
2021/12/22 09:19:36;;;;;;;20.87;12.83;;;;;;;;;;5058954;28;20257;-83
2021/12/22 09:22:03;;;;;;;25.30;13.50;;;;;;;;;;5062327;28;20207;-83
2021/12/22 09:24:31;;;;;;;25.50;13.40;;;;;;;;;;5059653;28;20236;-83
2021/12/22 09:26:58;;;;;;;21.20;13.87;;;;;;;;;;5057973;28;20234;-83
2021/12/22 09:29:26;;;;;;;23.07;13.37;;;;;;;;;;5063198;28;21016;-83
2021/12/22 09:31:53;;;;;;;25.80;13.53;;;;;;;;;;5061404;28;20202;-83
2021/12/22 09:34:21;;;;;;;27.10;15.57;;;;;;;;;;5063016;28;20229;-84
2021/12/22 09:36:48;;;;;;;20.00;13.00;;;;;;;;;;5060482;28;20226;-82
2021/12/22 09:39:17;;;;;;;21.30;14.63;;;;;;;;;;5056313;28;20238;-84
2021/12/22 09:41:46;;;;;;;26.47;15.10;;;;;;;;;;5059416;28;20202;-83
2021/12/22 09:44:13;;;;;;;27.90;14.60;;;;;;;;;;5059906;28;20234;-84
2021/12/22 09:46:49;;;;;;;29.53;15.70;;;;;;;;;;5049578;28;20258;-84
2021/12/22 09:54:42;;;;;;;23.00;14.43;;;;;;;;;;5036617;28;20308;-82
2021/12/22 09:57:11;;;;;;;34.20;17.50;;;;;;;;;;5035527;28;20293;-82
2021/12/22 09:59:38;;;;;;;30.77;16.60;;;;;;;;;;5035680;28;20265;-82
2021/12/22 10:02:05;;;;;;;28.40;16.50;;;;;;;;;;5036903;28;20214;-83
2021/12/22 10:04:33;;;;;;;29.57;16.90;;;;;;;;;;5037507;28;20253;-83
2021/12/22 10:07:00;;;;;;;27.43;16.73;;;;;;;;;;5064108;28;20222;-82
2021/12/22 10:09:29;;;;;;;39.03;18.37;;;;;;;;;;5070527;28;20234;-83
2021/12/22 10:11:56;;;;;;;32.07;18.70;;;;;;;;;;5071725;28;20210;-83
2021/12/22 10:14:25;;;;;;;41.43;20.20;;;;;;;;;;5070115;28;21054;-83
2021/12/22 10:16:54;;;;;;;35.17;19.67;;;;;;;;;;5070966;28;20264;-82
2021/12/22 10:19:21;;;;;;;47.80;22.33;;;;;;;;;;5071411;28;20233;-83
2021/12/22 10:21:53;;;;;;;39.70;20.17;;;;;;;;;;5071751;28;20217;-83
2021/12/22 10:24:22;;;;;;;43.97;23.80;;;;;;;;;;5070518;28;20229;-84
2021/12/22 10:27:01;;;;;;;46.87;23.50;;;;;;;;;;5061594;28;20230;-84
2021/12/22 10:29:32;;;;;;;46.03;24.20;;;;;;;;;;5061499;28;20259;-84
2021/12/22 10:32:06;;;;;;;49.03;24.43;;;;;;;;;;5063242;28;20267;-83
2021/12/22 10:34:35;;;;;;;54.60;24.30;;;;;;;;;;5056275;28;20260;-83
2021/12/22 10:37:02;;;;;;;51.43;23.67;;;;;;;;;;5072402;28;20202;-84
2021/12/22 10:39:32;;;;;;;48.03;23.63;;;;;;;;;;5070257;28;20234;-83
2021/12/22 10:42:09;;;;;;;53.53;23.90;;;;;;;;;;5089586;28;20205;-84
2021/12/22 10:44:38;;;;;;;53.63;22.73;;;;;;;;;;5090792;28;20265;-84
2021/12/22 10:47:18;;;;;;;58.10;24.67;;;;;;;;;;5090776;28;20210;-84
2021/12/22 10:49:58;;;;;;;54.13;22.93;;;;;;;;;;5072909;28;20238;-84
2021/12/22 10:52:26;;;;;;;56.90;25.27;;;;;;;;;;5057604;28;20193;-84
2021/12/22 10:55:06;;;;;;;54.07;22.43;;;;;;;;;;5090709;28;20241;-84
2021/12/22 10:57:36;;;;;;;47.40;23.17;;;;;;;;;;5091294;28;20617;-84
2021/12/22 11:00:14;;;;;;;46.20;22.07;;;;;;;;;;5090509;28;20654;-84
2021/12/22 11:02:44;;;;;;;55.03;23.77;;;;;;;;;;5088042;28;20183;-84
2021/12/22 11:05:17;;;;;;;55.07;26.37;;;;;;;;;;5079281;28;20289;-84
2021/12/22 11:07:44;;;;;;;66.10;28.10;;;;;;;;;;5044623;28;20192;-84
2021/12/22 11:10:23;;;;;;;56.83;23.40;;;;;;;;;;5044275;28;20246;-84
2021/12/22 11:13:00;;;;;;;56.70;24.03;;;;;;;;;;5046429;28;20231;-84
2021/12/22 11:15:28;;;;;;;61.77;23.50;;;;;;;;;;5062364;28;20294;-84
2021/12/22 11:17:55;;;;;;;69.47;27.17;;;;;;;;;;5064937;28;20203;-84
2021/12/22 11:20:23;;;;;;;64.73;27.07;;;;;;;;;;5066233;28;20871;-83
2021/12/22 11:22:54;;;;;;;65.10;23.70;;;;;;;;;;5063263;28;20208;-84
2021/12/22 11:25:21;;;;;;;54.93;23.47;;;;;;;;;;5061767;28;20239;-83
2021/12/22 11:27:49;;;;;;;65.10;26.30;;;;;;;;;;5062228;28;20209;-83
2021/12/22 11:30:16;;;;;;;71.00;26.80;;;;;;;;;;5063174;28;20240;-84
2021/12/22 11:32:45;;;;;;;76.90;27.67;;;;;;;;;;5063059;28;20534;-83
2021/12/22 11:35:13;;;;;;;68.00;28.40;;;;;;;;;;5063674;28;20241;-84
2021/12/22 11:37:40;;;;;;;70.10;30.00;;;;;;;;;;5062236;28;20202;-84
2021/12/22 11:40:11;;;;;;;72.77;30.60;;;;;;;;;;5060856;28;20249;-84
2021/12/22 11:42:42;;;;;;;72.70;30.20;;;;;;;;;;5062973;28;20261;-83
2021/12/22 11:45:11;;;;;;;58.50;24.17;;;;;;;;;;5057318;28;20240;-82
2021/12/22 11:47:39;;;;;;;59.43;24.90;;;;;;;;;;5062737;28;20208;-82
2021/12/22 11:50:09;;;;;;;67.40;25.97;;;;;;;;;;5065223;28;20230;-84
2021/12/22 11:52:37;;;;;;;51.00;23.43;;;;;;;;;;5064664;28;20209;-85
2021/12/22 11:55:13;;;;;;;73.43;26.67;;;;;;;;;;5064337;28;20238;-84
2021/12/22 11:57:40;;;;;;;78.33;28.07;;;;;;;;;;5058229;28;20220;-87
2021/12/22 12:00:28;;;;;;;67.47;25.57;;;;;;;;;;5065741;28;20225;-83
2021/12/22 12:02:55;;;;;;;59.57;25.37;;;;;;;;;;5063948;28;20210;-82
2021/12/22 12:05:25;;;;;;;70.30;25.90;;;;;;;;;;5062936;28;20256;-85
2021/12/22 12:07:54;;;;;;;60.67;27.90;;;;;;;;;;5065138;28;20194;-84
2021/12/22 12:10:35;;;;;;;63.70;28.23;;;;;;;;;;5064953;28;20289;-83
2021/12/22 12:13:06;;;;;;;64.33;27.47;;;;;;;;;;5067778;28;20234;-83
2021/12/22 12:15:59;;;;;;;61.63;24.50;;;;;;;;;;5066973;28;20265;-83
2021/12/22 12:21:53;;;;;;;63.70;27.20;;;;;;;;;;5067272;28;20300;-83
2021/12/22 12:24:42;;;;;;;59.10;24.30;;;;;;;;;;5031178;28;20241;-83
2021/12/22 12:27:28;;;;;;;73.47;29.07;;;;;;;;;;5067440;28;20182;-87
2021/12/22 12:29:55;;;;;;;70.73;26.43;;;;;;;;;;5065974;28;20245;-82
2021/12/22 12:32:37;;;;;;;67.50;29.37;;;;;;;;;;5065823;28;20217;-83
2021/12/22 12:35:23;;;;;;;71.77;31.03;;;;;;;;;;5067220;28;20238;-82
2021/12/22 12:38:01;;;;;;;70.90;29.90;;;;;;;;;;5062484;28;20212;-82
2021/12/22 12:40:42;;;;;;;70.30;27.90;;;;;;;;;;5064361;28;20735;-83
2021/12/22 12:43:11;;;;;;;69.27;27.90;;;;;;;;;;5065400;28;20650;-82
2021/12/22 12:45:45;;;;;;;65.50;28.13;;;;;;;;;;5065173;28;20233;-82
2021/12/22 12:48:25;;;;;;;63.73;28.97;;;;;;;;;;5064445;28;20206;-83
2021/12/22 12:51:07;;;;;;;70.30;26.37;;;;;;;;;;5065735;28;20206;-82
2021/12/22 12:53:38;;;;;;;60.30;24.70;;;;;;;;;;5064843;28;20233;-82
2021/12/22 12:56:08;;;;;;;55.03;26.33;;;;;;;;;;5066063;28;20843;-82
2021/12/22 12:58:36;;;;;;;57.73;26.23;;;;;;;;;;5064829;28;20227;-82
2021/12/22 13:01:03;;;;;;;70.10;27.77;;;;;;;;;;5064412;28;20210;-82
2021/12/22 13:03:47;;;;;;;62.10;28.40;;;;;;;;;;5065567;28;20249;-82
2021/12/22 13:06:14;;;;;;;63.97;27.03;;;;;;;;;;5065742;28;20623;-82
2021/12/22 13:08:41;;;;;;;68.13;26.33;;;;;;;;;;5065489;28;20237;-82
2021/12/22 13:11:12;;;;;;;65.13;26.13;;;;;;;;;;5065895;28;20302;-83
2021/12/22 13:15:45;;;;;;;58.33;24.77;;;;;;;;;;5065545;28;20698;-83
2021/12/22 13:16:44;;;;;;;47.70;23.07;;;;;;;;;;5065695;28;20258;-82
2021/12/22 13:19:11;;;;;;;60.03;25.03;;;;;;;;;;5065308;28;20275;-83
2021/12/22 13:21:38;;;;;;;62.70;27.87;;;;;;;;;;5065796;28;20261;-83
2021/12/22 13:24:06;;;;;;;59.67;26.93;;;;;;;;;;5064964;28;20230;-81
2021/12/22 13:26:33;;;;;;;57.07;26.80;;;;;;;;;;5084409;23;20252;-76
2021/12/22 13:29:02;;;;;;;50.97;23.00;;;;;;;;;;5062548;28;20237;-76
2021/12/22 13:31:29;;;;;;;43.43;20.23;;;;;;;;;;5070664;28;20213;-76
2021/12/22 13:34:02;;;;;;;41.70;20.77;;;;;;;;;;5070612;28;20697;-76
2021/12/22 13:36:29;;;;;;;45.30;22.23;;;;;;;;;;5070829;28;20242;-77
2021/12/22 13:38:59;;;;;;;57.60;23.53;;;;;;;;;;5070970;28;20229;-76
2021/12/22 13:41:29;;;;;;;53.17;24.37;;;;;;;;;;5070718;28;20211;-76
2021/12/22 13:43:57;;;;;;;39.43;19.60;;;;;;;;;;5070912;28;20723;-76
2021/12/22 13:46:26;;;;;;;38.00;19.13;;;;;;;;;;5066160;28;20223;-77
2021/12/22 13:48:54;;;;;;;41.90;20.60;;;;;;;;;;5049922;28;20610;-78
2021/12/22 13:51:23;;;;;;;37.73;19.20;;;;;;;;;;5050472;28;20318;-76
2021/12/22 13:53:51;;;;;;;40.17;19.60;;;;;;;;;;5049746;28;20240;-77
2021/12/22 13:56:19;;;;;;;43.17;21.20;;;;;;;;;;5050403;28;20224;-76
2021/12/22 13:58:47;;;;;;;40.93;20.97;;;;;;;;;;5049989;28;20315;-76
2021/12/22 14:01:32;;;;;;;41.57;21.57;;;;;;;;;;5053508;28;20211;-76
2021/12/22 14:04:06;;;;;;;36.03;19.10;;;;;;;;;;5043756;28;20248;-77
2021/12/22 14:06:35;;;;;;;39.33;20.17;;;;;;;;;;5053792;28;20230;-77
2021/12/22 14:09:05;;;;;;;38.23;19.03;;;;;;;;;;5054131;28;20231;-77
2021/12/22 14:11:34;;;;;;;28.80;17.23;;;;;;;;;;5054269;28;20247;-77
2021/12/22 14:14:24;;;;;;;32.50;16.77;;;;;;;;;;5053317;28;20780;-77
2021/12/22 14:16:53;;;;;;;21.03;14.57;;;;;;;;;;5054063;28;20279;-77
2021/12/22 14:19:23;;;;;;;23.57;13.70;;;;;;;;;;5053402;28;20790;-77
2021/12/22 14:22:00;;;;;;;18.53;13.57;;;;;;;;;;5053896;28;20213;-77
2021/12/22 14:24:31;;;;;;;18.23;12.43;;;;;;;;;;5053421;28;20236;-77
2021/12/22 14:26:59;;;;;;;18.83;11.33;;;;;;;;;;5053472;28;20237;-77
2021/12/22 14:29:26;;;;;;;15.00;11.20;;;;;;;;;;5053116;28;20941;-77
2021/12/22 14:31:57;;;;;;;15.47;11.23;;;;;;;;;;5053538;28;20220;-77
2021/12/22 14:34:26;;;;;;;12.47;9.60;;;;;;;;;;5053406;28;20270;-77
2021/12/22 14:36:53;;;;;;;11.63;9.57;;;;;;;;;;5054064;28;20243;-77
2021/12/22 14:39:21;;;;;;;14.33;9.40;;;;;;;;;;5052944;28;20332;-77
2021/12/22 14:41:48;;;;;;;15.27;10.20;;;;;;;;;;5053210;28;20227;-76
2021/12/22 14:44:19;;;;;;;11.67;9.43;;;;;;;;;;5053127;28;20275;-77
2021/12/22 14:46:46;;;;;;;13.63;9.13;;;;;;;;;;5053503;28;20224;-77
2021/12/22 14:49:14;;;;;;;16.03;9.30;;;;;;;;;;5052753;28;20233;-77
2021/12/22 14:51:43;;;;;;;14.43;9.87;;;;;;;;;;5052560;28;20304;-77
2021/12/22 14:54:12;;;;;;;13.60;9.60;;;;;;;;;;5052699;28;20237;-76